createdAt,value
2022-12-11T00:00:20.982Z,77.38
2022-12-11T00:10:25.605Z,78.05
2022-12-11T00:20:28.623Z,80.00
2022-12-11T00:30:33.003Z,80.71
2022-12-11T00:40:36.466Z,80.59
2022-12-11T00:50:41.845Z,80.62
2022-12-11T01:00:44.819Z,81.55
2022-12-11T01:10:49.202Z,82.69
2022-12-11T01:20:52.567Z,82.20
2022-12-11T01:30:56.753Z,82.94
2022-12-11T01:41:00.309Z,82.79
2022-12-11T01:51:06.893Z,82.43
2022-12-11T02:01:15.171Z,82.16
2022-12-11T02:11:25.866Z,82.82
2022-12-11T02:21:35.610Z,83.35
2022-12-11T02:31:43.997Z,83.72
2022-12-11T02:41:51.426Z,82.91
2022-12-11T02:51:57.747Z,82.93
2022-12-11T03:02:01.229Z,82.86
2022-12-11T03:12:06.075Z,82.05
2022-12-11T03:22:13.970Z,82.69
2022-12-11T03:32:23.292Z,81.94
2022-12-11T03:42:28.142Z,82.32
2022-12-11T03:52:33.581Z,81.90
2022-12-11T04:02:36.739Z,81.35
2022-12-11T04:12:41.143Z,81.68
2022-12-11T04:23:01.692Z,82.87
2022-12-11T04:33:06.025Z,81.28
2022-12-11T04:43:09.013Z,81.55
2022-12-11T04:53:13.433Z,81.23
2022-12-11T05:03:16.544Z,81.12
2022-12-11T05:13:20.983Z,80.26
2022-12-11T05:23:24.107Z,80.55
2022-12-11T05:33:28.902Z,80.90
2022-12-11T05:43:33.901Z,80.09
2022-12-11T05:53:39.276Z,81.55
2022-12-11T06:03:42.734Z,81.37
2022-12-11T06:13:47.001Z,81.90
2022-12-11T06:23:51.717Z,81.12
2022-12-11T06:33:56.369Z,81.19
2022-12-11T06:43:59.284Z,81.31
2022-12-11T06:54:03.641Z,81.82
2022-12-11T07:04:06.780Z,80.84
2022-12-11T07:14:13.052Z,80.86
2022-12-11T07:24:16.218Z,80.76
2022-12-11T07:34:20.796Z,80.49
2022-12-11T07:44:23.665Z,80.28
2022-12-11T07:54:28.000Z,81.06
2022-12-11T08:04:30.879Z,80.80
2022-12-11T08:14:35.402Z,80.94
2022-12-11T08:24:38.338Z,80.46
2022-12-11T08:34:42.569Z,80.28
2022-12-11T08:44:46.087Z,79.87
2022-12-11T08:54:50.409Z,80.22
2022-12-11T09:04:54.984Z,80.22
2022-12-11T09:14:59.308Z,80.77
2022-12-11T09:25:02.395Z,82.25
2022-12-11T09:35:07.945Z,80.36
2022-12-11T09:45:15.169Z,80.42
2022-12-11T09:55:24.280Z,80.06
2022-12-11T10:05:34.884Z,79.27
2022-12-11T10:15:54.792Z,79.00
2022-12-11T10:26:04.073Z,79.07
2022-12-11T10:36:09.945Z,79.01
2022-12-11T10:46:18.627Z,78.75
2022-12-11T10:56:35.162Z,77.19
2022-12-11T11:06:39.299Z,76.46
2022-12-11T11:16:45.826Z,75.93
2022-12-11T11:27:12.145Z,75.70
2022-12-11T11:37:27.051Z,75.10
2022-12-11T11:47:35.698Z,74.27
2022-12-11T11:57:44.812Z,73.13
2022-12-11T12:07:56.082Z,72.95
2022-12-11T12:18:08.937Z,74.06
2022-12-11T12:28:23.842Z,73.22
2022-12-11T12:38:35.582Z,73.65
2022-12-11T12:48:40.026Z,73.74
2022-12-11T12:58:46.455Z,72.81
2022-12-11T13:08:52.718Z,72.51
2022-12-11T13:18:57.840Z,70.87
2022-12-11T13:29:00.981Z,70.63
2022-12-11T13:39:11.152Z,70.63
2022-12-11T13:49:22.948Z,71.19
2022-12-11T13:59:30.044Z,71.90
2022-12-11T14:09:33.149Z,71.70
2022-12-11T14:19:38.221Z,70.82
2022-12-11T14:29:41.107Z,71.37
2022-12-11T14:39:59.353Z,71.33
2022-12-11T14:50:07.525Z,71.82
2022-12-11T15:00:24.404Z,71.56
2022-12-11T15:10:41.147Z,72.08
2022-12-11T15:20:45.535Z,71.70
2022-12-11T15:30:57.762Z,71.95
2022-12-11T15:41:03.524Z,72.22
2022-12-11T15:51:07.390Z,72.29
2022-12-11T16:01:12.324Z,72.83
2022-12-11T16:11:15.469Z,72.97
2022-12-11T16:21:21.769Z,74.08
2022-12-11T16:31:25.159Z,73.98
2022-12-11T16:41:29.603Z,74.54
2022-12-11T16:51:32.592Z,74.07
2022-12-11T17:01:36.991Z,74.79
2022-12-11T17:11:39.947Z,74.50
2022-12-11T17:21:51.153Z,74.25
2022-12-11T17:31:54.719Z,74.55
2022-12-11T17:42:01.940Z,74.86
2022-12-11T17:52:05.286Z,74.56
2022-12-11T18:02:10.716Z,74.43
2022-12-11T18:12:13.917Z,74.79
2022-12-11T18:22:18.324Z,75.55
2022-12-11T18:32:21.311Z,75.30
2022-12-11T18:42:33.837Z,75.38
2022-12-11T18:52:37.134Z,75.04
2022-12-11T19:14:02.333Z,75.99
2022-12-11T19:24:08.870Z,75.41
2022-12-11T19:34:12.010Z,75.57
2022-12-11T19:44:16.808Z,75.71
2022-12-11T19:54:20.037Z,75.55
2022-12-11T20:04:24.395Z,81.32
2022-12-11T20:14:29.141Z,77.11
2022-12-11T20:24:34.438Z,76.15
2022-12-11T20:34:37.275Z,76.38
2022-12-11T20:44:47.283Z,76.51
2022-12-11T20:54:52.168Z,77.11
2022-12-11T21:04:56.782Z,76.87
2022-12-11T21:15:00.008Z,77.75
2022-12-11T21:25:05.290Z,77.64
2022-12-11T21:35:09.870Z,78.60
2022-12-11T21:45:58.750Z,77.54
2022-12-11T21:55:41.171Z,77.97
2022-12-11T22:05:48.965Z,76.86
2022-12-11T22:15:52.490Z,75.99
2022-12-11T22:25:57.079Z,75.58
2022-12-11T22:36:01.157Z,75.15
2022-12-11T22:46:05.495Z,74.79
2022-12-11T22:56:10.334Z,74.26
2022-12-11T23:06:16.520Z,74.67
2022-12-11T23:16:19.590Z,74.20
2022-12-11T23:26:24.556Z,74.16
2022-12-11T23:36:29.005Z,73.41
2022-12-11T23:46:34.631Z,73.99
2022-12-11T23:56:38.105Z,73.55
